createdAt,value
2022-10-13T00:00:18.532Z,17.08
2022-10-13T00:02:49.402Z,18.10
2022-10-13T00:05:20.029Z,21.65
2022-10-13T00:07:50.425Z,17.92
2022-10-13T00:10:20.923Z,16.75
2022-10-13T00:12:52.144Z,17.83
2022-10-13T00:15:26.950Z,18.67
2022-10-13T00:17:57.365Z,20.48
2022-10-13T00:20:27.847Z,19.27
2022-10-13T00:22:58.201Z,19.73
2022-10-13T00:25:28.718Z,20.55
2022-10-13T00:27:59.328Z,19.58
2022-10-13T00:30:39.730Z,16.83
2022-10-13T00:33:11.581Z,16.75
2022-10-13T00:35:48.504Z,17.05
2022-10-13T00:38:24.245Z,16.98
2022-10-13T00:40:58.045Z,17.90
2022-10-13T00:43:48.841Z,17.23
2022-10-13T00:46:19.303Z,16.58
2022-10-13T00:48:53.761Z,16.30
2022-10-13T00:51:29.175Z,15.88
2022-10-13T00:54:01.136Z,15.35
2022-10-13T00:56:32.008Z,15.85
2022-10-13T00:59:02.980Z,16.70
2022-10-13T01:01:33.500Z,15.55
2022-10-13T01:04:04.991Z,15.02
2022-10-13T01:06:35.871Z,15.10
2022-10-13T01:09:06.430Z,14.85
2022-10-13T01:11:48.396Z,14.00
2022-10-13T01:14:33.403Z,14.40
2022-10-13T01:17:40.485Z,14.38
2022-10-13T01:20:11.007Z,13.70
2022-10-13T01:23:13.486Z,14.18
2022-10-13T01:28:28.381Z,13.38
2022-10-13T01:31:11.621Z,13.60
2022-10-13T01:33:56.775Z,13.38
2022-10-13T01:37:15.889Z,13.15
2022-10-13T01:40:08.232Z,13.07
2022-10-13T01:45:23.376Z,12.38
2022-10-13T01:47:54.471Z,12.18
2022-10-13T01:50:25.038Z,11.88
2022-10-13T01:52:57.340Z,12.32
2022-10-13T01:55:30.171Z,12.32
2022-10-13T01:58:00.590Z,12.10
2022-10-13T02:00:36.952Z,12.48
2022-10-13T02:03:32.771Z,12.02
2022-10-13T02:06:17.236Z,11.85
2022-10-13T02:09:04.872Z,11.25
2022-10-13T02:11:35.706Z,11.98
2022-10-13T02:14:15.832Z,12.65
2022-10-13T02:16:48.600Z,11.80
2022-10-13T02:19:20.636Z,11.90
2022-10-13T02:24:21.765Z,11.15
2022-10-13T02:26:53.418Z,11.38
2022-10-13T02:29:23.929Z,11.55
2022-10-13T02:31:55.882Z,11.15
2022-10-13T02:34:26.300Z,12.32
2022-10-13T02:36:56.680Z,11.48
2022-10-13T02:39:27.022Z,11.13
2022-10-13T02:41:57.510Z,10.30
2022-10-13T02:44:28.420Z,11.02
2022-10-13T02:46:58.818Z,11.43
2022-10-13T02:49:29.590Z,10.57
2022-10-13T02:52:00.057Z,10.93
2022-10-13T02:54:30.527Z,10.80
2022-10-13T02:57:01.049Z,10.73
2022-10-13T02:59:31.742Z,10.73
2022-10-13T03:02:02.240Z,10.23
2022-10-13T03:04:33.531Z,9.90
2022-10-13T03:07:07.559Z,10.00
2022-10-13T03:09:38.181Z,9.32
2022-10-13T03:12:09.169Z,10.05
2022-10-13T03:14:40.575Z,9.43
2022-10-13T03:17:13.494Z,9.60
2022-10-13T03:19:44.666Z,10.45
2022-10-13T03:22:20.446Z,9.88
2022-10-13T03:24:52.685Z,9.98
2022-10-13T03:27:23.461Z,9.38
2022-10-13T03:29:56.748Z,9.50
2022-10-13T03:32:27.377Z,9.88
2022-10-13T03:34:57.824Z,9.45
2022-10-13T03:37:31.682Z,8.93
2022-10-13T03:40:01.995Z,8.82
2022-10-13T03:42:32.471Z,8.32
2022-10-13T03:45:03.457Z,9.48
2022-10-13T03:47:39.176Z,9.57
2022-10-13T03:50:10.052Z,9.45
2022-10-13T03:52:40.668Z,9.40
2022-10-13T03:55:11.187Z,8.55
2022-10-13T03:57:41.597Z,9.18
2022-10-13T04:00:12.861Z,8.98
2022-10-13T04:02:43.329Z,9.20
2022-10-13T04:05:14.379Z,9.10
2022-10-13T04:07:44.915Z,9.25
2022-10-13T04:10:22.033Z,9.77
2022-10-13T04:12:52.649Z,9.13
2022-10-13T04:15:23.072Z,9.35
2022-10-13T04:17:54.015Z,9.95
2022-10-13T04:20:24.842Z,9.13
2022-10-13T04:22:56.503Z,9.70
2022-10-13T04:25:27.444Z,9.70
2022-10-13T04:27:57.922Z,9.18
2022-10-13T04:30:28.315Z,8.75
2022-10-13T04:32:58.759Z,9.48
2022-10-13T04:35:29.302Z,10.23
2022-10-13T04:37:59.761Z,9.70
2022-10-13T04:40:30.399Z,8.68
2022-10-13T04:43:00.849Z,9.43
2022-10-13T04:45:31.639Z,9.23
2022-10-13T04:48:02.733Z,9.77
2022-10-13T04:50:33.248Z,9.03
2022-10-13T04:53:03.622Z,9.30
2022-10-13T04:55:36.796Z,9.13
2022-10-13T04:58:07.235Z,9.25
2022-10-13T05:00:37.807Z,9.30
2022-10-13T05:03:08.820Z,9.20
2022-10-13T05:05:39.210Z,8.90
2022-10-13T05:08:09.750Z,8.55
2022-10-13T05:10:41.556Z,9.02
2022-10-13T05:13:12.130Z,8.27
2022-10-13T05:15:42.668Z,9.00
2022-10-13T05:18:13.652Z,8.73
2022-10-13T05:20:44.307Z,9.30
2022-10-13T05:23:16.893Z,8.82
2022-10-13T05:25:47.363Z,8.73
2022-10-13T05:28:21.180Z,7.72
2022-10-13T05:30:51.617Z,8.45
2022-10-13T05:33:24.819Z,8.45
2022-10-13T05:35:58.110Z,8.27
2022-10-13T05:38:28.498Z,8.07
2022-10-13T05:41:04.884Z,7.68
2022-10-13T05:43:36.237Z,9.23
2022-10-13T05:46:07.304Z,8.18
2022-10-13T05:48:40.702Z,7.45
2022-10-13T05:51:46.694Z,7.20
2022-10-13T05:54:31.903Z,7.53
2022-10-13T05:57:08.168Z,8.10
2022-10-13T05:59:47.759Z,7.00
2022-10-13T06:02:21.426Z,7.38
2022-10-13T06:04:56.875Z,7.50
2022-10-13T06:07:27.616Z,7.63
2022-10-13T06:09:59.758Z,7.22
2022-10-13T06:12:31.762Z,6.95
2022-10-13T06:15:02.453Z,6.85
2022-10-13T06:17:33.070Z,6.63
2022-10-13T06:20:03.489Z,6.53
2022-10-13T06:22:35.448Z,6.63
2022-10-13T06:27:38.864Z,6.20
2022-10-13T06:30:10.055Z,6.55
2022-10-13T06:32:40.660Z,6.68
2022-10-13T06:35:11.438Z,6.10
2022-10-13T06:37:41.932Z,6.47
2022-10-13T06:40:13.615Z,6.35
2022-10-13T06:42:44.080Z,6.80
2022-10-13T06:45:14.549Z,6.03
2022-10-13T06:47:45.011Z,5.88
2022-10-13T06:50:15.718Z,6.85
2022-10-13T06:52:46.165Z,5.70
2022-10-13T06:55:17.157Z,6.03
2022-10-13T06:57:47.816Z,5.32
2022-10-13T07:00:18.652Z,5.90
2022-10-13T07:02:53.531Z,5.75
2022-10-13T07:05:24.131Z,5.50
2022-10-13T07:07:57.523Z,5.95
2022-10-13T07:10:28.008Z,5.55
2022-10-13T07:12:59.141Z,5.57
2022-10-13T07:15:29.913Z,6.07
2022-10-13T07:18:00.450Z,5.30
2022-10-13T07:20:31.452Z,5.43
2022-10-13T07:23:02.679Z,5.03
2022-10-13T07:25:33.084Z,5.40
2022-10-13T07:28:03.525Z,5.10
2022-10-13T07:30:33.981Z,5.20
2022-10-13T07:33:04.856Z,4.93
2022-10-13T07:35:35.448Z,5.00
2022-10-13T07:38:06.026Z,5.15
2022-10-13T07:40:36.904Z,5.22
2022-10-13T07:43:07.271Z,5.10
2022-10-13T07:45:37.936Z,4.80
2022-10-13T07:48:08.862Z,5.30
2022-10-13T07:50:39.532Z,5.25
2022-10-13T07:53:10.096Z,5.25
2022-10-13T07:55:40.776Z,4.80
2022-10-13T07:58:12.019Z,5.45
2022-10-13T08:00:42.943Z,5.00
2022-10-13T08:03:13.363Z,5.05
2022-10-13T08:05:43.759Z,5.30
2022-10-13T08:08:14.215Z,5.72
2022-10-13T08:10:44.710Z,5.05
2022-10-13T08:13:15.628Z,5.03
2022-10-13T08:15:47.506Z,4.57
2022-10-13T08:18:18.327Z,4.95
2022-10-13T08:20:48.710Z,4.60
2022-10-13T08:23:21.236Z,4.80
2022-10-13T08:25:54.844Z,4.70
2022-10-13T08:28:29.419Z,5.05
2022-10-13T08:31:00.702Z,4.57
2022-10-13T08:33:31.149Z,4.65
2022-10-13T08:36:01.634Z,4.65
2022-10-13T08:38:32.070Z,4.60
2022-10-13T08:41:03.974Z,4.28
2022-10-13T08:43:34.511Z,4.65
2022-10-13T08:46:04.950Z,4.88
2022-10-13T08:48:43.274Z,5.10
2022-10-13T08:51:17.011Z,4.85
2022-10-13T08:53:49.252Z,5.05
2022-10-13T08:56:33.434Z,4.85
2022-10-13T08:59:06.405Z,4.43
2022-10-13T09:01:38.319Z,4.70
2022-10-13T09:04:09.627Z,4.68
2022-10-13T09:06:51.230Z,4.80
2022-10-13T09:09:21.976Z,4.35
2022-10-13T09:11:53.631Z,4.45
2022-10-13T09:14:28.955Z,4.85
2022-10-13T09:17:24.638Z,4.43
2022-10-13T09:20:21.751Z,4.80
2022-10-13T09:23:08.685Z,4.50
2022-10-13T09:25:44.510Z,5.00
2022-10-13T09:28:25.574Z,5.13
2022-10-13T09:31:15.506Z,4.70
2022-10-13T09:33:46.953Z,4.82
2022-10-13T09:36:18.060Z,5.00
2022-10-13T09:39:18.788Z,5.60
2022-10-13T09:41:49.399Z,5.22
2022-10-13T09:44:33.101Z,5.68
2022-10-13T09:47:05.750Z,5.65
2022-10-13T09:49:40.832Z,5.78
2022-10-13T09:52:14.202Z,5.47
2022-10-13T09:54:47.831Z,4.93
2022-10-13T09:57:37.816Z,5.18
2022-10-13T10:00:29.075Z,5.07
2022-10-13T10:03:05.103Z,5.32
2022-10-13T10:05:56.708Z,4.60
2022-10-13T10:09:02.718Z,5.22
2022-10-13T10:11:43.738Z,4.53
2022-10-13T10:14:26.464Z,5.22
2022-10-13T10:17:23.324Z,4.90
2022-10-13T10:20:31.739Z,4.93
2022-10-13T10:23:35.040Z,4.70
2022-10-13T10:26:23.621Z,4.90
2022-10-13T10:29:08.945Z,6.07
2022-10-13T10:32:20.102Z,6.05
2022-10-13T10:35:45.209Z,6.95
2022-10-13T10:38:36.648Z,5.78
2022-10-13T10:41:31.838Z,5.57
2022-10-13T10:44:31.410Z,5.60
2022-10-13T10:47:08.449Z,5.80
2022-10-13T10:49:40.551Z,5.88
2022-10-13T10:55:05.707Z,5.35
2022-10-13T10:57:54.792Z,6.72
2022-10-13T11:03:30.625Z,5.45
2022-10-13T11:06:07.235Z,5.50
2022-10-13T11:08:44.640Z,5.88
2022-10-13T11:11:38.110Z,6.05
2022-10-13T11:14:31.661Z,6.30
2022-10-13T11:17:08.372Z,5.55
2022-10-13T11:19:40.874Z,5.75
2022-10-13T11:22:19.909Z,6.13
2022-10-13T11:24:57.731Z,5.93
2022-10-13T11:27:38.740Z,6.82
2022-10-13T11:30:42.302Z,6.05
2022-10-13T11:33:40.381Z,6.50
2022-10-13T11:36:30.977Z,6.03
2022-10-13T11:42:07.918Z,6.38
2022-10-13T11:44:55.905Z,6.38
2022-10-13T11:48:03.076Z,7.30
2022-10-13T11:51:00.991Z,6.93
2022-10-13T11:54:01.817Z,6.85
2022-10-13T11:56:48.776Z,7.18
2022-10-13T11:59:34.655Z,7.28
2022-10-13T12:02:16.977Z,7.40
2022-10-13T12:05:10.472Z,6.40
2022-10-13T12:07:43.896Z,6.93
2022-10-13T12:10:41.114Z,8.48
2022-10-13T12:13:25.672Z,8.70
2022-10-13T12:16:02.506Z,9.20
2022-10-13T12:18:36.949Z,9.30
2022-10-13T12:21:17.333Z,8.90
2022-10-13T12:23:49.114Z,9.07
2022-10-13T12:26:22.953Z,9.68
2022-10-13T12:28:58.027Z,9.50
2022-10-13T12:31:44.470Z,9.77
2022-10-13T12:34:32.964Z,9.45
2022-10-13T12:37:20.051Z,11.23
2022-10-13T12:39:51.251Z,10.35
2022-10-13T12:42:31.324Z,12.15
2022-10-13T12:45:03.761Z,12.55
2022-10-13T12:47:46.342Z,16.77
2022-10-13T12:50:31.727Z,16.73
2022-10-13T12:53:05.294Z,15.80
2022-10-13T12:55:39.824Z,15.85
2022-10-13T12:58:24.187Z,15.68
2022-10-13T13:01:16.022Z,14.95
2022-10-13T13:03:48.577Z,15.23
2022-10-13T13:06:18.971Z,15.48
2022-10-13T13:12:25.072Z,14.90
2022-10-13T13:14:56.532Z,16.33
2022-10-13T13:17:53.304Z,16.60
2022-10-13T13:20:32.058Z,19.15
2022-10-13T13:23:02.659Z,22.33
2022-10-13T13:25:33.283Z,27.65
2022-10-13T13:28:11.535Z,27.23
2022-10-13T13:30:42.849Z,26.25
2022-10-13T13:33:13.276Z,24.83
2022-10-13T13:35:43.882Z,24.05
2022-10-13T13:38:14.449Z,22.70
2022-10-13T13:40:45.628Z,22.02
2022-10-13T13:43:17.137Z,23.80
2022-10-13T13:45:47.944Z,21.33
2022-10-13T13:48:18.455Z,20.85
2022-10-13T13:50:49.028Z,20.98
2022-10-13T13:53:19.552Z,19.05
2022-10-13T13:55:50.109Z,20.20
2022-10-13T13:58:21.901Z,19.73
2022-10-13T14:00:55.983Z,19.02
2022-10-13T14:03:26.543Z,18.43
2022-10-13T14:06:03.461Z,19.08
2022-10-13T14:08:45.177Z,19.67
2022-10-13T14:11:16.107Z,17.85
2022-10-13T14:13:46.619Z,17.92
2022-10-13T14:16:19.633Z,17.88
2022-10-13T14:18:51.813Z,17.50
2022-10-13T14:21:22.471Z,17.40
2022-10-13T14:23:53.344Z,16.98
2022-10-13T14:26:24.816Z,17.35
2022-10-13T14:28:55.809Z,15.60
2022-10-13T14:31:26.773Z,16.08
2022-10-13T14:33:57.266Z,14.63
2022-10-13T14:36:28.474Z,14.60
2022-10-13T14:38:59.223Z,13.73
2022-10-13T14:41:29.854Z,14.73
2022-10-13T14:44:01.128Z,13.77
2022-10-13T14:46:31.741Z,13.68
2022-10-13T14:49:02.485Z,12.38
2022-10-13T14:51:34.243Z,13.48
2022-10-13T14:54:05.600Z,13.38
2022-10-13T14:56:37.151Z,12.90
2022-10-13T14:59:08.418Z,12.68
2022-10-13T15:01:42.849Z,12.40
2022-10-13T15:04:13.508Z,12.27
2022-10-13T15:06:44.041Z,11.90
2022-10-13T15:09:14.723Z,11.95
2022-10-13T15:11:47.231Z,11.30
2022-10-13T15:14:17.600Z,11.73
2022-10-13T15:16:48.042Z,12.55
2022-10-13T15:19:21.018Z,12.45
2022-10-13T15:21:52.481Z,12.48
2022-10-13T15:24:24.355Z,13.18
2022-10-13T15:26:55.554Z,13.77
2022-10-13T15:29:29.966Z,13.32
2022-10-13T15:32:13.006Z,14.10
2022-10-13T15:34:44.440Z,13.25
2022-10-13T15:37:15.322Z,13.40
2022-10-13T15:39:45.980Z,13.98
2022-10-13T15:42:16.445Z,14.10
2022-10-13T15:47:38.152Z,14.32
2022-10-13T15:50:10.129Z,13.93
2022-10-13T15:55:12.993Z,15.55
2022-10-13T16:00:15.142Z,15.07
2022-10-13T16:02:46.551Z,15.63
2022-10-13T16:05:17.081Z,15.65
2022-10-13T16:07:47.616Z,15.18
2022-10-13T16:10:18.519Z,16.48
2022-10-13T16:12:49.847Z,15.70
2022-10-13T16:15:21.089Z,16.17
2022-10-13T16:17:54.530Z,17.07
2022-10-13T16:20:25.276Z,16.58
2022-10-13T16:22:56.034Z,16.50
2022-10-13T16:25:26.473Z,15.90
2022-10-13T16:27:56.864Z,16.35
2022-10-13T16:30:27.815Z,16.17
2022-10-13T16:32:59.081Z,16.67
2022-10-13T16:35:30.016Z,18.00
2022-10-13T16:38:00.408Z,16.08
2022-10-13T16:40:30.864Z,17.27
2022-10-13T16:43:01.313Z,15.90
2022-10-13T16:45:55.124Z,17.00
2022-10-13T16:48:22.828Z,17.98
2022-10-13T16:50:54.566Z,16.70
2022-10-13T16:53:26.270Z,16.75
2022-10-13T16:55:56.722Z,17.08
2022-10-13T16:58:27.140Z,16.42
2022-10-13T17:01:09.721Z,16.95
2022-10-13T17:03:41.479Z,16.73
2022-10-13T17:06:13.798Z,17.95
2022-10-13T17:08:45.575Z,18.58
2022-10-13T17:13:51.435Z,16.98
2022-10-13T17:16:22.194Z,18.30
2022-10-13T17:18:53.204Z,17.27
2022-10-13T17:21:23.981Z,16.48
2022-10-13T17:24:13.004Z,16.83
2022-10-13T17:26:43.631Z,17.08
2022-10-13T17:29:14.425Z,16.15
2022-10-13T17:31:45.352Z,16.42
2022-10-13T17:34:15.792Z,17.38
2022-10-13T17:36:46.205Z,17.17
2022-10-13T17:39:18.630Z,16.20
2022-10-13T17:41:48.983Z,17.45
2022-10-13T17:44:21.729Z,15.70
2022-10-13T17:46:52.210Z,16.58
2022-10-13T17:49:22.623Z,16.35
2022-10-13T17:51:55.551Z,16.20
2022-10-13T17:54:26.021Z,15.75
2022-10-13T17:56:58.074Z,15.77
2022-10-13T18:01:58.346Z,15.88
2022-10-13T18:04:30.460Z,15.45
2022-10-13T18:09:30.896Z,16.27
2022-10-13T18:12:01.277Z,16.08
2022-10-13T18:14:31.770Z,15.00
2022-10-13T18:17:02.161Z,15.70
2022-10-13T18:19:36.550Z,16.08
2022-10-13T18:22:09.748Z,15.75
2022-10-13T18:24:40.512Z,15.80
2022-10-13T18:27:11.481Z,16.03
2022-10-13T18:29:43.735Z,16.45
2022-10-13T18:32:14.374Z,15.85
2022-10-13T18:34:45.337Z,16.50
2022-10-13T18:37:16.319Z,15.38
2022-10-13T18:39:48.768Z,14.88
2022-10-13T18:42:19.665Z,15.68
2022-10-13T18:44:49.979Z,15.00
2022-10-13T18:47:20.632Z,16.27
2022-10-13T18:49:51.578Z,14.75
2022-10-13T18:52:21.880Z,15.75
2022-10-13T18:54:52.993Z,15.88
2022-10-13T18:59:54.852Z,15.90
2022-10-13T19:02:31.720Z,15.68
2022-10-13T19:05:02.117Z,15.95
2022-10-13T19:07:35.703Z,14.75
2022-10-13T19:10:10.501Z,15.88
2022-10-13T19:12:40.900Z,14.65
2022-10-13T19:15:11.371Z,14.25
2022-10-13T19:17:41.716Z,14.07
2022-10-13T19:20:12.842Z,14.82
2022-10-13T19:22:43.166Z,14.30
2022-10-13T19:25:18.507Z,14.32
2022-10-13T19:27:48.949Z,14.32
2022-10-13T19:30:19.844Z,13.52
2022-10-13T19:32:53.164Z,13.32
2022-10-13T19:35:24.251Z,12.93
2022-10-13T19:37:54.717Z,13.05
2022-10-13T19:40:29.024Z,12.23
2022-10-13T19:42:59.331Z,12.73
2022-10-13T19:45:29.826Z,11.80
2022-10-13T19:48:00.798Z,12.68
2022-10-13T19:50:33.891Z,12.90
2022-10-13T19:53:05.158Z,12.00
2022-10-13T19:55:49.833Z,13.18
2022-10-13T19:58:20.459Z,12.02
2022-10-13T20:00:51.299Z,11.25
2022-10-13T20:03:21.866Z,12.43
2022-10-13T20:05:54.079Z,11.70
2022-10-13T20:08:24.431Z,11.70
2022-10-13T20:10:55.336Z,12.70
2022-10-13T20:13:26.085Z,11.68
2022-10-13T20:16:11.387Z,11.13
2022-10-13T20:18:42.781Z,11.15
2022-10-13T20:21:14.450Z,11.65
2022-10-13T20:23:44.930Z,11.40
2022-10-13T20:26:15.702Z,12.57
2022-10-13T20:28:48.361Z,12.13
2022-10-13T20:31:21.639Z,12.15
2022-10-13T20:33:59.057Z,12.20
2022-10-13T20:36:38.290Z,12.30
2022-10-13T20:39:09.966Z,12.93
2022-10-13T20:41:40.501Z,12.32
2022-10-13T20:44:11.352Z,12.40
2022-10-13T20:46:41.816Z,12.00
2022-10-13T20:49:13.425Z,11.77
2022-10-13T20:51:44.618Z,12.27
2022-10-13T20:54:17.240Z,11.63
2022-10-13T20:56:48.338Z,11.73
2022-10-13T20:59:18.678Z,11.73
2022-10-13T21:01:49.079Z,11.73
2022-10-13T21:04:19.376Z,11.25
2022-10-13T21:06:49.818Z,11.45
2022-10-13T21:09:20.187Z,11.30
2022-10-13T21:11:51.273Z,11.10
2022-10-13T21:14:21.659Z,10.93
2022-10-13T21:16:51.992Z,10.60
2022-10-13T21:19:22.774Z,11.20
2022-10-13T21:21:53.252Z,10.48
2022-10-13T21:24:23.603Z,9.65
2022-10-13T21:26:54.004Z,10.00
2022-10-13T21:29:25.491Z,10.27
2022-10-13T21:31:55.916Z,10.77
2022-10-13T21:34:26.297Z,10.18
2022-10-13T21:36:56.742Z,10.40
2022-10-13T21:39:27.170Z,10.90
2022-10-13T21:41:57.620Z,10.35
2022-10-13T21:44:29.119Z,9.97
2022-10-13T21:46:59.458Z,9.93
2022-10-13T21:49:29.859Z,9.70
2022-10-13T21:52:00.327Z,10.38
2022-10-13T21:54:30.720Z,10.65
2022-10-13T21:57:02.346Z,10.75
2022-10-13T21:59:33.353Z,10.40
2022-10-13T22:02:04.492Z,10.50
2022-10-13T22:04:34.992Z,9.93
2022-10-13T22:07:05.852Z,10.10
2022-10-13T22:09:36.287Z,9.48
2022-10-13T22:12:06.897Z,10.23
2022-10-13T22:14:39.038Z,10.40
2022-10-13T22:17:09.660Z,10.02
2022-10-13T22:19:40.051Z,9.32
2022-10-13T22:22:10.461Z,9.80
2022-10-13T22:24:41.491Z,9.52
2022-10-13T22:27:11.914Z,9.90
2022-10-13T22:29:42.569Z,9.68
2022-10-13T22:32:13.026Z,9.68
2022-10-13T22:34:43.464Z,9.20
2022-10-13T22:37:13.897Z,8.98
2022-10-13T22:39:44.309Z,8.98
2022-10-13T22:42:15.413Z,8.52
2022-10-13T22:44:45.866Z,8.90
2022-10-13T22:47:16.362Z,8.93
2022-10-13T22:49:47.451Z,8.38
2022-10-13T22:52:20.050Z,8.93
2022-10-13T22:54:50.428Z,8.75
2022-10-13T22:57:22.382Z,8.65
2022-10-13T22:59:53.756Z,8.88
2022-10-13T23:02:24.555Z,8.63
2022-10-13T23:04:54.905Z,7.93
2022-10-13T23:07:25.335Z,8.13
2022-10-13T23:09:55.717Z,8.02
2022-10-13T23:12:26.164Z,8.00
2022-10-13T23:14:56.621Z,8.43
2022-10-13T23:17:27.071Z,7.57
2022-10-13T23:19:58.209Z,7.35
2022-10-13T23:22:29.307Z,7.93
2022-10-13T23:24:59.749Z,7.57
2022-10-13T23:27:30.178Z,8.75
2022-10-13T23:30:00.659Z,9.73
2022-10-13T23:32:31.582Z,10.05
2022-10-13T23:35:02.178Z,11.35
2022-10-13T23:37:35.066Z,10.88
2022-10-13T23:40:05.955Z,11.02
2022-10-13T23:42:36.266Z,11.80
2022-10-13T23:45:08.224Z,10.88
2022-10-13T23:47:38.691Z,12.30
2022-10-13T23:50:09.461Z,11.15
2022-10-13T23:52:39.911Z,9.55
2022-10-13T23:55:11.055Z,10.52
2022-10-13T23:57:41.590Z,10.03
